Airfield :
LOGIN :

Register | Disclaimer

   EN    FR    IT 

 










Legend :    VFR   Marginal VFR   IFR   Intensive IFR   Very Intensive IFR
Visi :
Ceiling :
>= 8 km
>= 3000ft
5 to 8 km
1000 to 3000 ft
1500m to 5 km
500 to 1000 ft
800 to 1500m
200 to 500 ft
< 800m
< 200 ft
Symbols :   Thunderstorms  Fog  Heavy snow  Heavy precipitations  Wind > 20 kt
SIGMETs :     Misc.  Thunderstorms  Icing  Turbulence  Mountain Waves  Volcanic Ashes






- Airport Elevation : 1299 ft


EDTY - Adolf Würth

CURRENT METAR :
  • 031950Z AUTO 00000KT 9000 // FEW032/// BKN037/// OVC073/// 15/14 Q1012

EXPIRED METARs :
  • 031920Z AUTO 00000KT 9000 // FEW018/// OVC041/// 15/14 Q1012
  • 031850Z AUTO 10002KT 9999 // FEW040/// OVC072/// 15/14 Q1011
  • 031820Z AUTO 09003KT 9999 // OVC077/// 15/14 Q1011
  • 031750Z 09004KT 9999 -RA FEW020 15/13 Q1011
  • 031720Z 05005KT 9999 -RA FEW020 16/14 Q1011

TAF TAF EDTY
Valid from the 03 at 18:00 until the 04 at 03:00 UTC


031700Z 0318/0403 02004KT 9999 FEW008 BKN030
BECMG 0318/0320 32005KT
TEMPO 0318/0324 BKN008



MET'MAP, your aeronautical weather chart ! - Copyright ORBIFLY December 2007 - Disclaimer

ORBIFLY MET'MAP TEAM :

Programming & Development : Alexandra Zaïnal
Concept & original design : Baudouin d'Aumeries
Assistance for programming : Marc-Olivier Méhu
Technical & hardware support : Manuel Goepfert

Contact : metmap@orbifly.com




SOURCES & CREDITS :

   NOAA